Time;durP1;ratioP1;P1;durP2;ratioP2;P2;SDS_P1;SDS_P2;PMS_P1;PMS_P2;Temp;Humidity;BMP_temperature;BMP_pressure;BME280_temperature;BME280_humidity;BME280_pressure;Samples;Min_cycle;Max_cycle;Signal;HPM_P1;HPM_P2
2022/12/27 00:00:52;;;;;;;9.60;4.40;;;;;;;;;;5073216;28;20087;-77
2022/12/27 00:03:19;;;;;;;11.88;4.65;;;;;;;;;;5069263;28;20091;-78
2022/12/27 00:05:46;;;;;;;11.25;4.60;;;;;;;;;;5070754;28;20425;-79
2022/12/27 00:08:13;;;;;;;13.52;4.55;;;;;;;;;;5071548;28;20059;-78
2022/12/27 00:10:40;;;;;;;14.30;4.70;;;;;;;;;;5069129;28;20052;-77
2022/12/27 00:13:06;;;;;;;12.00;4.20;;;;;;;;;;5051416;28;20056;-78
2022/12/27 00:15:34;;;;;;;9.95;3.58;;;;;;;;;;5077840;28;20050;-77
2022/12/27 00:18:00;;;;;;;12.27;3.80;;;;;;;;;;5089387;28;20052;-78
2022/12/27 00:20:27;;;;;;;15.60;3.40;;;;;;;;;;5089376;28;20478;-77
2022/12/27 00:22:53;;;;;;;11.27;3.33;;;;;;;;;;5088223;28;20163;-78
2022/12/27 00:25:20;;;;;;;6.35;2.90;;;;;;;;;;5088841;28;20794;-77
2022/12/27 00:27:46;;;;;;;8.50;3.08;;;;;;;;;;5089857;28;20048;-77
2022/12/27 00:30:12;;;;;;;13.50;2.63;;;;;;;;;;5089656;28;20044;-77
2022/12/27 00:32:39;;;;;;;19.75;2.67;;;;;;;;;;5087937;28;20055;-77
2022/12/27 00:35:06;;;;;;;21.42;2.72;;;;;;;;;;5089405;28;20058;-77
2022/12/27 00:37:32;;;;;;;8.27;2.13;;;;;;;;;;5089661;28;20127;-78
2022/12/27 00:39:58;;;;;;;10.38;2.70;;;;;;;;;;5089995;28;20052;-78
2022/12/27 00:42:25;;;;;;;15.05;3.28;;;;;;;;;;5088786;28;20074;-78
2022/12/27 00:44:51;;;;;;;10.05;2.90;;;;;;;;;;5089682;28;20112;-77
2022/12/27 00:47:17;;;;;;;12.70;4.05;;;;;;;;;;5089764;28;20101;-78
2022/12/27 00:49:44;;;;;;;12.55;3.95;;;;;;;;;;5095398;28;20048;-78
2022/12/27 00:52:10;;;;;;;10.88;3.50;;;;;;;;;;5096079;28;20104;-78
2022/12/27 00:54:37;;;;;;;11.18;3.38;;;;;;;;;;5097291;28;20086;-78
2022/12/27 00:57:03;;;;;;;10.93;3.42;;;;;;;;;;5091313;28;20128;-78
2022/12/27 00:59:30;;;;;;;7.60;3.28;;;;;;;;;;5059102;28;20049;-78
2022/12/27 01:01:56;;;;;;;15.05;3.20;;;;;;;;;;5075124;28;20133;-78
2022/12/27 01:04:23;;;;;;;8.05;2.95;;;;;;;;;;5055875;28;20059;-78
2022/12/27 01:06:49;;;;;;;8.77;2.85;;;;;;;;;;5072785;28;20059;-77
2022/12/27 01:09:16;;;;;;;6.32;2.47;;;;;;;;;;5073542;28;20067;-79
2022/12/27 01:11:43;;;;;;;11.77;2.20;;;;;;;;;;5071287;28;20473;-77
2022/12/27 01:14:09;;;;;;;6.68;1.85;;;;;;;;;;5073135;28;20455;-77
2022/12/27 01:16:39;;;;;;;10.10;1.58;;;;;;;;;;5089683;28;20496;-78
2022/12/27 01:19:06;;;;;;;11.90;1.77;;;;;;;;;;5094181;28;20492;-78
2022/12/27 01:21:32;;;;;;;8.35;1.27;;;;;;;;;;5093480;28;20303;-79
2022/12/27 01:23:58;;;;;;;8.43;1.48;;;;;;;;;;5094424;28;20048;-78
2022/12/27 01:26:25;;;;;;;2.90;1.10;;;;;;;;;;5094996;28;20155;-78
2022/12/27 01:28:52;;;;;;;4.40;1.40;;;;;;;;;;5093540;28;20048;-78
2022/12/27 01:31:20;;;;;;;6.30;1.52;;;;;;;;;;5091857;28;20048;-77
2022/12/27 01:33:47;;;;;;;7.88;1.55;;;;;;;;;;5091695;28;20127;-78
2022/12/27 01:36:18;;;;;;;7.68;1.80;;;;;;;;;;5093361;28;20052;-78
2022/12/27 01:38:48;;;;;;;6.70;1.75;;;;;;;;;;5076782;28;20489;-77
2022/12/27 01:44:23;;;;;;;11.00;1.70;;;;;;;;;;5093586;28;20115;-77
2022/12/27 01:46:50;;;;;;;5.13;1.20;;;;;;;;;;5092293;28;20114;-79
2022/12/27 01:49:16;;;;;;;13.10;2.00;;;;;;;;;;5093242;28;20052;-77
2022/12/27 01:51:43;;;;;;;9.43;1.65;;;;;;;;;;5091688;28;20048;-78
2022/12/27 01:54:09;;;;;;;14.15;1.77;;;;;;;;;;5073838;28;20143;-78
2022/12/27 01:56:36;;;;;;;12.32;1.63;;;;;;;;;;5089187;28;20040;-78
2022/12/27 01:59:05;;;;;;;7.20;1.58;;;;;;;;;;5072054;28;20041;-79
2022/12/27 02:01:33;;;;;;;10.55;1.77;;;;;;;;;;5060169;28;20048;-78
2022/12/27 02:04:11;;;;;;;6.70;1.67;;;;;;;;;;5071124;28;20053;-78
2022/12/27 02:06:38;;;;;;;6.82;2.08;;;;;;;;;;5074577;28;20049;-79
2022/12/27 02:09:27;;;;;;;8.15;2.30;;;;;;;;;;5056967;28;20052;-79
2022/12/27 02:11:55;;;;;;;13.40;2.40;;;;;;;;;;5071620;28;20260;-79
2022/12/27 02:14:30;;;;;;;9.13;2.45;;;;;;;;;;5072312;28;20056;-78
2022/12/27 02:16:58;;;;;;;10.38;2.50;;;;;;;;;;5052404;28;20052;-78
2022/12/27 02:19:33;;;;;;;6.03;2.05;;;;;;;;;;5052745;28;20194;-78
2022/12/27 02:22:00;;;;;;;;;;;;;;;;;;5053181;28;20116;-78
2022/12/27 02:24:41;;;;;;;12.85;3.05;;;;;;;;;;5053679;28;19931;-78
2022/12/27 02:27:11;;;;;;;9.20;2.70;;;;;;;;;;5053078;28;20049;-78
2022/12/27 02:29:37;;;;;;;14.95;2.85;;;;;;;;;;5035240;28;20056;-79
2022/12/27 02:32:09;;;;;;;8.15;2.80;;;;;;;;;;5032585;28;20052;-77
2022/12/27 02:34:45;;;;;;;12.73;2.58;;;;;;;;;;5050981;28;20045;-79
2022/12/27 02:37:12;;;;;;;7.32;2.22;;;;;;;;;;5051466;28;20052;-78
2022/12/27 02:39:41;;;;;;;7.30;2.53;;;;;;;;;;5051357;28;20390;-77
2022/12/27 02:53:25;;;;;;;7.10;2.47;;;;;;;;;;5054528;28;20144;-78
2022/12/27 02:58:55;;;;;;;7.60;2.40;;;;;;;;;;5071585;28;20045;-78
2022/12/27 03:04:13;;;;;;;8.60;3.03;;;;;;;;;;5072660;28;20123;-78
2022/12/27 03:06:45;;;;;;;5.57;2.35;;;;;;;;;;5073119;28;20255;-79
2022/12/27 03:15:53;;;;;;;6.60;2.22;;;;;;;;;;5056243;28;20416;-79
2022/12/27 03:17:42;;;;;;;9.20;2.42;;;;;;;;;;5091322;28;20048;-79
2022/12/27 03:25:44;;;;;;;6.63;1.90;;;;;;;;;;5091841;28;20139;-78
2022/12/27 03:33:58;;;;;;;9.40;2.05;;;;;;;;;;5090058;28;20054;-78
2022/12/27 03:39:10;;;;;;;;;;;;;;;;;;5091615;28;20501;-77
2022/12/27 03:44:34;;;;;;;7.93;1.50;;;;;;;;;;5088812;28;20496;-75
2022/12/27 03:47:11;;;;;;;9.77;1.55;;;;;;;;;;5089197;28;20050;-75
2022/12/27 03:49:42;;;;;;;5.68;1.55;;;;;;;;;;5088600;28;20086;-77
2022/12/27 03:52:29;;;;;;;8.32;1.90;;;;;;;;;;5089756;28;20071;-78
2022/12/27 03:54:56;;;;;;;8.43;1.63;;;;;;;;;;5075278;28;20131;-78
2022/12/27 03:57:24;;;;;;;5.00;1.50;;;;;;;;;;5086172;28;20040;-78
2022/12/27 03:59:50;;;;;;;3.78;1.40;;;;;;;;;;5068681;28;20040;-77
2022/12/27 04:02:16;;;;;;;6.55;1.80;;;;;;;;;;5067864;28;20048;-78
2022/12/27 04:04:43;;;;;;;5.78;2.00;;;;;;;;;;5068514;28;20128;-78
2022/12/27 04:07:13;;;;;;;5.95;1.70;;;;;;;;;;5070069;28;20052;-78
2022/12/27 04:34:43;;;;;;;3.17;1.58;;;;;;;;;;5090488;28;20051;-78
2022/12/27 04:37:11;;;;;;;6.07;1.10;;;;;;;;;;5090511;28;20082;-78
2022/12/27 04:39:38;;;;;;;4.45;1.15;;;;;;;;;;5091036;28;20500;-78
2022/12/27 04:56:05;;;;;;;10.25;1.55;;;;;;;;;;5093998;28;20048;-78
2022/12/27 04:58:31;;;;;;;4.43;1.10;;;;;;;;;;5081797;28;20370;-78
2022/12/27 05:03:44;;;;;;;5.70;1.25;;;;;;;;;;5070608;28;20041;-79
2022/12/27 05:06:11;;;;;;;4.55;1.35;;;;;;;;;;5053733;28;20044;-78
2022/12/27 05:14:10;;;;;;;4.67;0.87;;;;;;;;;;5079087;28;20116;-77
2022/12/27 05:16:38;;;;;;;4.85;1.27;;;;;;;;;;5086633;28;20106;-78
2022/12/27 05:19:05;;;;;;;4.82;0.93;;;;;;;;;;5078621;28;20074;-77
2022/12/27 05:21:35;;;;;;;6.00;1.23;;;;;;;;;;5067983;28;20053;-78
2022/12/27 05:26:47;;;;;;;5.95;1.20;;;;;;;;;;5068324;28;20045;-78
2022/12/27 05:29:14;;;;;;;5.60;1.20;;;;;;;;;;5069768;28;20052;-78
2022/12/27 05:31:40;;;;;;;3.70;1.10;;;;;;;;;;5068701;28;20048;-78
2022/12/27 05:34:07;;;;;;;4.55;1.10;;;;;;;;;;5068799;28;20764;-77
2022/12/27 05:36:33;;;;;;;4.40;0.90;;;;;;;;;;5069412;28;20464;-77
2022/12/27 05:39:00;;;;;;;5.47;1.10;;;;;;;;;;5069866;28;20339;-78
2022/12/27 05:41:26;;;;;;;5.18;1.17;;;;;;;;;;5054077;28;20048;-76
2022/12/27 05:43:53;;;;;;;11.60;1.38;;;;;;;;;;5071064;28;20048;-76
2022/12/27 05:46:20;;;;;;;4.95;0.98;;;;;;;;;;5071181;28;20045;-76
2022/12/27 05:48:47;;;;;;;5.88;1.00;;;;;;;;;;5073643;28;20487;-78
2022/12/27 05:51:15;;;;;;;9.07;1.20;;;;;;;;;;5073369;28;20054;-77
2022/12/27 05:53:45;;;;;;;3.90;1.00;;;;;;;;;;5072653;28;20516;-78
2022/12/27 05:56:15;;;;;;;5.57;1.00;;;;;;;;;;5055233;28;20059;-78
2022/12/27 05:58:42;;;;;;;6.75;1.08;;;;;;;;;;5079029;28;20066;-78
2022/12/27 06:01:10;;;;;;;4.05;1.00;;;;;;;;;;5063976;28;20048;-78
2022/12/27 06:03:36;;;;;;;7.78;1.23;;;;;;;;;;5071735;28;20048;-77
2022/12/27 06:06:03;;;;;;;5.65;1.23;;;;;;;;;;5075317;28;20048;-79
2022/12/27 06:08:30;;;;;;;7.88;1.20;;;;;;;;;;5074095;28;20449;-76
2022/12/27 06:11:04;;;;;;;7.50;1.33;;;;;;;;;;5052950;28;20049;-76
2022/12/27 06:13:30;;;;;;;8.45;1.30;;;;;;;;;;5070860;28;20060;-78
2022/12/27 06:15:58;;;;;;;6.38;1.40;;;;;;;;;;5070001;28;20059;-78
2022/12/27 06:18:25;;;;;;;8.43;1.30;;;;;;;;;;5072733;28;20164;-78
2022/12/27 06:20:51;;;;;;;6.45;1.27;;;;;;;;;;5072628;28;20053;-78
2022/12/27 06:23:18;;;;;;;5.15;1.45;;;;;;;;;;5071950;28;20045;-78
2022/12/27 06:25:44;;;;;;;7.65;1.67;;;;;;;;;;5071256;28;20055;-77
2022/12/27 06:28:10;;;;;;;8.45;1.65;;;;;;;;;;5054551;28;20452;-78
2022/12/27 06:30:37;;;;;;;7.65;1.40;;;;;;;;;;5053670;28;20342;-79
2022/12/27 06:33:03;;;;;;;4.07;1.60;;;;;;;;;;5071122;28;20059;-78
2022/12/27 06:35:29;;;;;;;5.65;1.63;;;;;;;;;;5071953;28;20063;-79
2022/12/27 06:37:56;;;;;;;9.82;1.95;;;;;;;;;;5071337;28;20061;-78
2022/12/27 06:40:22;;;;;;;8.35;1.40;;;;;;;;;;5071228;28;20064;-78
2022/12/27 06:42:49;;;;;;;9.10;2.00;;;;;;;;;;5070253;28;20045;-78
2022/12/27 06:45:15;;;;;;;6.90;1.52;;;;;;;;;;5071401;28;20155;-78
2022/12/27 06:47:41;;;;;;;8.10;1.80;;;;;;;;;;5069665;28;20059;-78
2022/12/27 06:50:08;;;;;;;5.63;1.50;;;;;;;;;;5069186;28;20063;-78
2022/12/27 06:52:34;;;;;;;11.75;1.60;;;;;;;;;;5069368;28;20047;-78
2022/12/27 06:55:01;;;;;;;6.45;1.58;;;;;;;;;;5064959;28;20051;-79
2022/12/27 06:57:27;;;;;;;9.65;1.77;;;;;;;;;;5071444;28;20048;-77
2022/12/27 06:59:53;;;;;;;5.40;1.58;;;;;;;;;;5069366;28;20049;-78
2022/12/27 07:02:20;;;;;;;8.98;1.70;;;;;;;;;;5067539;28;20579;-76
2022/12/27 07:04:46;;;;;;;5.15;1.83;;;;;;;;;;5070231;28;20128;-79
2022/12/27 07:07:13;;;;;;;6.35;1.63;;;;;;;;;;5070522;28;20421;-78
2022/12/27 07:09:41;;;;;;;7.57;1.55;;;;;;;;;;5067453;28;20055;-79
2022/12/27 07:12:07;;;;;;;8.40;2.08;;;;;;;;;;5070050;28;20127;-78
2022/12/27 07:14:34;;;;;;;6.72;1.85;;;;;;;;;;5053679;28;20068;-79
2022/12/27 07:17:00;;;;;;;5.95;1.60;;;;;;;;;;5071294;28;20605;-79
2022/12/27 07:19:27;;;;;;;8.90;2.00;;;;;;;;;;5070163;28;20044;-78
2022/12/27 07:21:53;;;;;;;6.15;2.35;;;;;;;;;;5049224;28;20044;-77
2022/12/27 07:24:19;;;;;;;8.75;2.08;;;;;;;;;;5070794;28;20056;-80
2022/12/27 07:26:46;;;;;;;5.53;1.50;;;;;;;;;;5071217;28;20048;-78
2022/12/27 07:29:12;;;;;;;6.95;2.00;;;;;;;;;;5054367;28;20460;-76
2022/12/27 07:31:39;;;;;;;6.45;1.45;;;;;;;;;;5070442;28;20112;-78
2022/12/27 07:34:05;;;;;;;6.38;1.55;;;;;;;;;;5070710;28;20055;-78
2022/12/27 07:36:33;;;;;;;9.13;1.50;;;;;;;;;;5071338;28;20052;-77
2022/12/27 07:38:59;;;;;;;7.00;1.80;;;;;;;;;;5071939;28;20221;-78
2022/12/27 07:41:26;;;;;;;7.55;1.70;;;;;;;;;;5071601;28;20048;-79
2022/12/27 07:43:52;;;;;;;5.80;1.90;;;;;;;;;;5063544;28;20489;-78
2022/12/27 07:46:20;;;;;;;5.57;2.03;;;;;;;;;;5068193;28;20366;-79
2022/12/27 07:48:47;;;;;;;5.40;1.50;;;;;;;;;;5071713;28;20107;-79
2022/12/27 07:51:15;;;;;;;4.80;1.80;;;;;;;;;;5070618;28;20115;-77
2022/12/27 07:53:41;;;;;;;7.00;1.90;;;;;;;;;;5071192;28;20052;-79
2022/12/27 07:56:09;;;;;;;5.95;1.70;;;;;;;;;;5052100;28;20144;-79
2022/12/27 07:58:36;;;;;;;10.75;1.80;;;;;;;;;;5070827;28;20112;-78
2022/12/27 08:01:03;;;;;;;9.07;1.90;;;;;;;;;;5070581;28;20418;-79
2022/12/27 08:03:30;;;;;;;7.63;1.67;;;;;;;;;;5070500;28;20048;-79
2022/12/27 08:05:56;;;;;;;4.13;1.70;;;;;;;;;;5070727;28;20521;-79
2022/12/27 08:08:25;;;;;;;6.88;1.88;;;;;;;;;;5070907;28;20171;-77
2022/12/27 08:10:52;;;;;;;5.32;1.95;;;;;;;;;;5070619;28;20059;-79
2022/12/27 08:13:18;;;;;;;4.90;1.80;;;;;;;;;;5070999;28;20412;-79
2022/12/27 08:15:44;;;;;;;5.60;1.50;;;;;;;;;;5080778;28;20194;-78
2022/12/27 08:18:11;;;;;;;4.05;1.77;;;;;;;;;;5092523;28;20047;-79
2022/12/27 08:20:37;;;;;;;4.75;1.83;;;;;;;;;;5091922;28;20164;-77
2022/12/27 08:23:04;;;;;;;9.80;1.95;;;;;;;;;;5092055;28;20056;-78
2022/12/27 08:25:30;;;;;;;6.80;1.90;;;;;;;;;;5093605;28;20060;-81
2022/12/27 08:28:07;;;;;;;3.08;1.60;;;;;;;;;;5091598;28;20044;-79
2022/12/27 08:30:33;;;;;;;6.40;1.73;;;;;;;;;;5091491;28;20095;-79
2022/12/27 08:33:01;;;;;;;8.38;1.80;;;;;;;;;;5073575;28;20052;-79
2022/12/27 08:35:27;;;;;;;7.90;2.22;;;;;;;;;;5078604;28;20053;-78
2022/12/27 08:38:14;;;;;;;7.22;1.55;;;;;;;;;;5070441;28;20440;-78
2022/12/27 08:40:41;;;;;;;6.15;1.60;;;;;;;;;;5070129;28;20128;-79
2022/12/27 08:43:07;;;;;;;4.57;1.23;;;;;;;;;;5068976;28;20068;-79
2022/12/27 08:45:34;;;;;;;6.53;1.83;;;;;;;;;;5070004;28;20041;-78
2022/12/27 08:48:01;;;;;;;5.63;1.70;;;;;;;;;;5070517;28;20139;-79
2022/12/27 08:50:27;;;;;;;11.05;2.30;;;;;;;;;;5062018;28;20172;-79
2022/12/27 08:52:58;;;;;;;5.80;1.80;;;;;;;;;;5070617;28;20049;-78
2022/12/27 08:55:25;;;;;;;9.15;2.63;;;;;;;;;;5073581;28;20056;-79
2022/12/27 08:57:55;;;;;;;5.57;1.60;;;;;;;;;;5071609;28;20054;-80
2022/12/27 09:00:22;;;;;;;7.82;2.28;;;;;;;;;;5071719;28;20048;-79
2022/12/27 09:02:48;;;;;;;7.60;1.85;;;;;;;;;;5070538;28;20055;-80
2022/12/27 09:05:15;;;;;;;6.78;1.20;;;;;;;;;;5072395;28;20063;-78
2022/12/27 09:07:41;;;;;;;8.15;1.70;;;;;;;;;;5071103;28;20108;-79
2022/12/27 09:10:08;;;;;;;5.63;1.42;;;;;;;;;;5068066;28;20044;-78
2022/12/27 09:12:34;;;;;;;6.50;1.60;;;;;;;;;;5076298;28;20075;-78
2022/12/27 09:15:01;;;;;;;11.00;1.60;;;;;;;;;;5074813;28;20048;-79
2022/12/27 09:17:29;;;;;;;5.63;1.60;;;;;;;;;;5075209;28;20052;-79
2022/12/27 09:19:56;;;;;;;4.07;1.38;;;;;;;;;;5074551;28;20549;-78
2022/12/27 09:22:22;;;;;;;4.13;1.10;;;;;;;;;;5073481;28;20041;-78
2022/12/27 09:24:49;;;;;;;6.22;1.40;;;;;;;;;;5068902;28;20051;-77
2022/12/27 09:27:15;;;;;;;7.68;1.45;;;;;;;;;;5073735;28;20045;-79
2022/12/27 09:29:41;;;;;;;4.97;1.30;;;;;;;;;;5073311;28;20049;-78
2022/12/27 09:32:13;;;;;;;5.68;1.25;;;;;;;;;;5069349;28;20044;-75
2022/12/27 09:34:40;;;;;;;4.13;0.90;;;;;;;;;;5084655;28;20064;-79
2022/12/27 09:37:06;;;;;;;5.55;1.45;;;;;;;;;;5085811;28;20068;-79
2022/12/27 09:39:33;;;;;;;6.78;1.50;;;;;;;;;;5088374;28;20054;-78
2022/12/27 09:42:14;;;;;;;5.22;1.13;;;;;;;;;;5067779;28;20048;-79
2022/12/27 09:45:01;;;;;;;4.70;1.10;;;;;;;;;;5092822;28;20039;-79
2022/12/27 09:47:32;;;;;;;2.95;0.85;;;;;;;;;;5085287;28;20076;-78
2022/12/27 09:50:04;;;;;;;6.50;1.20;;;;;;;;;;5074766;28;20511;-77
2022/12/27 09:52:36;;;;;;;6.15;1.05;;;;;;;;;;5074399;28;20055;-78
2022/12/27 09:55:05;;;;;;;4.38;1.10;;;;;;;;;;5075002;28;20084;-80
2022/12/27 09:57:41;;;;;;;4.28;1.05;;;;;;;;;;5073771;28;20048;-79
2022/12/27 10:00:15;;;;;;;5.22;1.30;;;;;;;;;;5074935;28;20056;-80
2022/12/27 10:02:45;;;;;;;6.50;1.38;;;;;;;;;;5070608;28;20056;-78
2022/12/27 10:05:22;;;;;;;3.78;1.10;;;;;;;;;;5073441;28;20045;-78
2022/12/27 10:07:48;;;;;;;5.85;0.95;;;;;;;;;;5058003;28;20388;-78
2022/12/27 10:10:15;;;;;;;3.05;0.90;;;;;;;;;;5077813;28;20048;-79
2022/12/27 10:12:53;;;;;;;3.35;1.20;;;;;;;;;;5071667;28;20476;-80
2022/12/27 10:15:20;;;;;;;5.78;1.30;;;;;;;;;;5074007;28;20515;-78
2022/12/27 10:17:46;;;;;;;6.93;1.30;;;;;;;;;;5071496;28;20330;-78
2022/12/27 10:20:21;;;;;;;8.15;1.73;;;;;;;;;;5054878;28;20045;-77
2022/12/27 10:22:50;;;;;;;6.22;1.40;;;;;;;;;;5069500;28;20045;-78
2022/12/27 10:25:18;;;;;;;7.13;0.98;;;;;;;;;;5071759;28;20055;-78
2022/12/27 10:27:46;;;;;;;7.30;1.65;;;;;;;;;;5070439;28;20131;-78
2022/12/27 10:30:18;;;;;;;6.45;1.40;;;;;;;;;;5052491;28;20151;-77
2022/12/27 10:32:45;;;;;;;7.45;1.20;;;;;;;;;;5071892;28;20108;-78
2022/12/27 10:35:16;;;;;;;4.30;1.08;;;;;;;;;;5074460;28;20098;-77
2022/12/27 10:37:43;;;;;;;6.55;1.20;;;;;;;;;;5071532;28;20052;-80
2022/12/27 10:40:31;;;;;;;3.33;0.93;;;;;;;;;;5070534;28;20051;-78
2022/12/27 10:43:04;;;;;;;8.50;1.20;;;;;;;;;;5070165;28;20154;-78
2022/12/27 10:45:41;;;;;;;6.95;1.42;;;;;;;;;;5070855;28;20040;-78
2022/12/27 10:48:10;;;;;;;8.90;1.23;;;;;;;;;;5051995;28;20040;-78
2022/12/27 10:50:37;;;;;;;3.13;1.02;;;;;;;;;;5071124;28;20051;-78
2022/12/27 10:53:03;;;;;;;6.88;0.98;;;;;;;;;;5071244;28;20052;-78
2022/12/27 10:55:34;;;;;;;6.78;0.88;;;;;;;;;;5071669;28;20089;-79
2022/12/27 10:58:20;;;;;;;5.90;0.90;;;;;;;;;;5071415;28;20052;-78
2022/12/27 11:00:52;;;;;;;5.90;1.02;;;;;;;;;;5050866;28;20055;-78
2022/12/27 11:03:18;;;;;;;4.88;1.15;;;;;;;;;;5050287;28;20075;-78
2022/12/27 11:05:57;;;;;;;4.28;1.00;;;;;;;;;;5049939;28;20048;-79
2022/12/27 11:08:23;;;;;;;3.53;1.10;;;;;;;;;;5051181;28;20052;-78
2022/12/27 11:10:51;;;;;;;11.57;1.15;;;;;;;;;;5049801;28;20274;-78
2022/12/27 11:13:18;;;;;;;5.28;0.98;;;;;;;;;;5049878;28;20045;-79
2022/12/27 11:15:53;;;;;;;5.63;1.52;;;;;;;;;;5069877;28;20058;-78
2022/12/27 11:18:24;;;;;;;4.15;1.10;;;;;;;;;;5091331;28;20048;-78
2022/12/27 11:20:53;;;;;;;6.30;1.13;;;;;;;;;;5072744;28;20111;-78
2022/12/27 11:23:21;;;;;;;5.75;1.10;;;;;;;;;;5091201;28;20044;-78
2022/12/27 11:25:59;;;;;;;3.08;1.13;;;;;;;;;;5089448;28;20044;-77
2022/12/27 11:28:39;;;;;;;4.20;1.00;;;;;;;;;;5072150;28;20508;-77
2022/12/27 11:31:07;;;;;;;3.03;0.85;;;;;;;;;;5072000;28;20048;-80
2022/12/27 11:33:54;;;;;;;3.47;0.90;;;;;;;;;;5088319;28;20127;-78
2022/12/27 11:36:23;;;;;;;6.25;1.10;;;;;;;;;;5089237;28;20066;-76
2022/12/27 11:38:50;;;;;;;5.30;0.93;;;;;;;;;;5089266;28;20083;-77
2022/12/27 11:41:20;;;;;;;3.75;0.90;;;;;;;;;;5075831;28;20079;-78
2022/12/27 11:44:02;;;;;;;3.70;0.95;;;;;;;;;;5076512;28;20123;-80
2022/12/27 11:46:44;;;;;;;3.65;0.90;;;;;;;;;;5093143;28;20544;-79
2022/12/27 11:49:21;;;;;;;5.35;0.95;;;;;;;;;;5096646;28;20052;-80
2022/12/27 11:51:47;;;;;;;5.40;0.98;;;;;;;;;;5100976;28;20048;-77
2022/12/27 11:54:32;;;;;;;5.97;0.68;;;;;;;;;;5102223;28;20423;-79
2022/12/27 11:57:07;;;;;;;2.60;0.93;;;;;;;;;;5096804;28;20052;-79
2022/12/27 11:59:40;;;;;;;7.93;1.38;;;;;;;;;;5063884;28;20049;-78
2022/12/27 12:02:21;;;;;;;7.03;1.33;;;;;;;;;;5069549;28;20068;-78
2022/12/27 12:05:13;;;;;;;3.50;0.80;;;;;;;;;;5070876;28;20059;-77
2022/12/27 12:07:46;;;;;;;4.35;1.17;;;;;;;;;;5032654;28;20049;-78
2022/12/27 12:10:31;;;;;;;9.73;1.35;;;;;;;;;;5072066;28;20413;-79
2022/12/27 12:13:12;;;;;;;5.45;0.90;;;;;;;;;;5070978;28;20048;-79
2022/12/27 12:15:59;;;;;;;6.00;0.93;;;;;;;;;;5072657;28;20111;-80
2022/12/27 12:18:25;;;;;;;10.40;1.10;;;;;;;;;;5071375;28;20052;-78
2022/12/27 12:21:01;;;;;;;2.38;0.80;;;;;;;;;;5071409;28;20096;-79
2022/12/27 12:23:46;;;;;;;9.35;1.23;;;;;;;;;;5070261;28;20048;-79
2022/12/27 12:26:20;;;;;;;4.30;1.10;;;;;;;;;;5070509;28;20052;-79
2022/12/27 12:29:08;;;;;;;2.78;0.93;;;;;;;;;;5071132;28;20048;-80
2022/12/27 12:31:35;;;;;;;6.28;0.80;;;;;;;;;;5069749;28;20139;-79
2022/12/27 12:34:20;;;;;;;4.75;1.17;;;;;;;;;;5070982;28;20501;-79
2022/12/27 12:36:52;;;;;;;5.40;0.83;;;;;;;;;;5072317;28;20049;-80
2022/12/27 12:39:25;;;;;;;5.38;1.20;;;;;;;;;;5070943;28;20048;-80
2022/12/27 12:41:51;;;;;;;8.00;1.23;;;;;;;;;;5070011;28;20393;-80
2022/12/27 12:44:35;;;;;;;4.55;1.20;;;;;;;;;;5071814;28;20044;-79
2022/12/27 12:47:10;;;;;;;4.95;1.33;;;;;;;;;;5075277;28;20075;-79
2022/12/27 12:49:45;;;;;;;3.38;1.02;;;;;;;;;;5074372;28;20055;-79
2022/12/27 12:52:11;;;;;;;;;;;;;;;;;;5074888;28;20040;-79
2022/12/27 12:54:47;;;;;;;7.40;1.00;;;;;;;;;;5075577;28;19930;-79
2022/12/27 12:57:34;;;;;;;7.75;1.20;;;;;;;;;;5087243;28;20111;-79
2022/12/27 13:00:22;;;;;;;1.08;0.70;;;;;;;;;;5075837;28;20079;-78
2022/12/27 13:03:01;;;;;;;4.25;1.23;;;;;;;;;;5073205;28;20052;-79
2022/12/27 13:05:37;;;;;;;6.65;1.33;;;;;;;;;;5076676;28;20520;-80
2022/12/27 13:08:22;;;;;;;5.35;1.00;;;;;;;;;;5077162;28;20540;-78
2022/12/27 13:10:49;;;;;;;2.97;0.85;;;;;;;;;;5074972;28;20044;-79
2022/12/27 13:13:18;;;;;;;6.18;1.13;;;;;;;;;;5075223;28;20048;-79
2022/12/27 13:15:55;;;;;;;4.70;0.98;;;;;;;;;;5074814;28;20048;-79
2022/12/27 13:18:48;;;;;;;7.13;1.00;;;;;;;;;;5076264;28;20048;-79
2022/12/27 13:21:23;;;;;;;6.20;1.60;;;;;;;;;;5056224;28;20048;-78
2022/12/27 13:23:53;;;;;;;6.28;1.08;;;;;;;;;;5073563;28;20457;-79
2022/12/27 13:26:37;;;;;;;6.35;0.90;;;;;;;;;;5056307;28;20040;-79
2022/12/27 13:29:23;;;;;;;2.05;0.70;;;;;;;;;;5075155;28;20056;-79
2022/12/27 13:31:52;;;;;;;6.63;0.88;;;;;;;;;;5055955;28;20206;-79
2022/12/27 13:34:26;;;;;;;2.88;0.98;;;;;;;;;;5077257;28;20048;-78
2022/12/27 13:37:07;;;;;;;10.23;1.30;;;;;;;;;;5075407;28;20052;-79
2022/12/27 13:39:42;;;;;;;5.57;1.10;;;;;;;;;;5074135;28;20056;-79
2022/12/27 13:42:09;;;;;;;;;;;;;;;;;;5076630;28;20085;-79
2022/12/27 13:44:38;;;;;;;6.20;0.70;;;;;;;;;;5075225;28;19939;-78
2022/12/27 13:47:13;;;;;;;4.72;0.90;;;;;;;;;;5075180;28;20048;-79
2022/12/27 13:49:40;;;;;;;;;;;;;;;;;;5074983;28;20048;-80
2022/12/27 13:52:24;;;;;;;3.45;0.90;;;;;;;;;;5074303;28;20333;-79
2022/12/27 13:55:09;;;;;;;4.30;1.20;;;;;;;;;;5074740;28;20052;-79
2022/12/27 13:57:35;;;;;;;3.35;1.05;;;;;;;;;;5075200;28;20048;-78
2022/12/27 14:00:22;;;;;;;5.47;1.25;;;;;;;;;;5077341;28;20048;-79
2022/12/27 14:03:07;;;;;;;3.28;0.90;;;;;;;;;;5074665;28;20141;-78
2022/12/27 14:05:36;;;;;;;4.75;1.20;;;;;;;;;;5072666;28;20476;-76
2022/12/27 14:08:21;;;;;;;11.13;1.08;;;;;;;;;;5055525;28;20074;-77
2022/12/27 14:10:50;;;;;;;2.00;0.93;;;;;;;;;;5071697;28;20048;-77
2022/12/27 14:13:27;;;;;;;5.47;1.00;;;;;;;;;;5072147;28;20863;-77
2022/12/27 14:16:09;;;;;;;3.15;0.90;;;;;;;;;;5083616;28;20425;-77
2022/12/27 14:18:35;;;;;;;6.40;1.20;;;;;;;;;;5093578;28;20056;-78
2022/12/27 14:21:14;;;;;;;9.23;1.40;;;;;;;;;;5071416;28;20049;-78
2022/12/27 14:23:40;;;;;;;2.28;1.33;;;;;;;;;;5068241;28;20052;-77
2022/12/27 14:26:07;;;;;;;3.83;1.05;;;;;;;;;;5070053;28;20145;-77
2022/12/27 14:28:36;;;;;;;2.05;0.90;;;;;;;;;;5072958;28;20309;-78
2022/12/27 14:31:21;;;;;;;7.60;1.15;;;;;;;;;;5068239;28;20041;-78
2022/12/27 14:34:20;;;;;;;7.97;1.08;;;;;;;;;;5066537;28;20052;-78
2022/12/27 14:36:58;;;;;;;4.50;1.10;;;;;;;;;;5032283;28;20049;-77
2022/12/27 14:39:34;;;;;;;4.55;1.60;;;;;;;;;;5069022;28;20048;-78
2022/12/27 14:42:00;;;;;;;;;;;;;;;;;;5068537;28;20496;-77
2022/12/27 14:44:29;;;;;;;3.22;1.00;;;;;;;;;;5071300;28;20011;-78
2022/12/27 14:47:05;;;;;;;7.32;1.30;;;;;;;;;;5070175;28;20054;-78
2022/12/27 14:49:31;;;;;;;4.85;1.02;;;;;;;;;;5067929;28;20052;-77
2022/12/27 14:52:01;;;;;;;5.90;1.20;;;;;;;;;;5063413;28;20048;-78
2022/12/27 14:54:40;;;;;;;4.50;1.60;;;;;;;;;;5052975;28;20519;-77
2022/12/27 14:57:06;;;;;;;3.63;1.20;;;;;;;;;;5076173;28;20048;-77
2022/12/27 14:59:53;;;;;;;4.30;1.05;;;;;;;;;;5064315;28;20045;-76
2022/12/27 15:02:35;;;;;;;7.85;1.48;;;;;;;;;;5070177;28;20512;-78
2022/12/27 15:05:31;;;;;;;3.95;1.02;;;;;;;;;;5074733;28;20074;-78
2022/12/27 15:08:00;;;;;;;6.75;1.20;;;;;;;;;;4984267;28;20055;-78
2022/12/27 15:10:45;;;;;;;5.40;1.15;;;;;;;;;;5072251;28;20048;-78
2022/12/27 15:13:12;;;;;;;3.17;0.98;;;;;;;;;;5071682;28;20440;-78
2022/12/27 15:16:05;;;;;;;5.75;1.08;;;;;;;;;;5073338;28;20053;-75
2022/12/27 15:18:52;;;;;;;5.68;1.27;;;;;;;;;;5073709;28;20385;-78
2022/12/27 15:21:28;;;;;;;6.40;1.35;;;;;;;;;;5051531;28;20044;-78
2022/12/27 15:24:03;;;;;;;6.47;1.23;;;;;;;;;;5069678;28;20052;-78
2022/12/27 15:27:05;;;;;;;12.43;1.25;;;;;;;;;;5069951;28;20063;-77
2022/12/27 15:29:31;;;;;;;5.70;1.02;;;;;;;;;;5008404;28;20479;-78
2022/12/27 15:32:16;;;;;;;5.35;1.23;;;;;;;;;;5054284;28;20465;-76
2022/12/27 15:34:43;;;;;;;6.60;1.30;;;;;;;;;;5075844;28;20505;-78
2022/12/27 15:37:28;;;;;;;4.55;1.23;;;;;;;;;;5080840;28;20144;-78
2022/12/27 15:39:55;;;;;;;4.63;1.30;;;;;;;;;;5077358;28;20059;-78
2022/12/27 15:42:26;;;;;;;5.97;1.70;;;;;;;;;;5072711;28;20048;-77
2022/12/27 15:45:18;;;;;;;15.25;1.60;;;;;;;;;;5071390;28;20295;-77
2022/12/27 15:47:52;;;;;;;4.93;1.65;;;;;;;;;;5068062;28;20050;-75
2022/12/27 15:50:25;;;;;;;6.32;1.58;;;;;;;;;;5047824;28;20044;-76
2022/12/27 15:53:10;;;;;;;7.30;1.58;;;;;;;;;;5049113;28;20497;-77
2022/12/27 15:55:49;;;;;;;8.68;1.67;;;;;;;;;;5067038;28;21679;-78
2022/12/27 15:58:20;;;;;;;6.95;1.90;;;;;;;;;;5070467;28;20127;-79
2022/12/27 16:01:05;;;;;;;4.93;1.77;;;;;;;;;;5066384;28;20052;-78
2022/12/27 16:03:33;;;;;;;5.13;1.80;;;;;;;;;;5070175;28;20048;-78
2022/12/27 16:06:00;;;;;;;6.63;1.70;;;;;;;;;;5072141;28;20071;-78
2022/12/27 16:08:45;;;;;;;9.48;1.50;;;;;;;;;;5071500;28;20056;-78
2022/12/27 16:11:11;;;;;;;8.65;1.70;;;;;;;;;;5068172;28;20053;-77
2022/12/27 16:13:38;;;;;;;7.18;1.80;;;;;;;;;;5068822;28;20049;-78
2022/12/27 16:16:09;;;;;;;12.07;1.50;;;;;;;;;;5068581;28;20063;-77
2022/12/27 16:18:49;;;;;;;10.55;2.25;;;;;;;;;;5069222;28;20456;-78
2022/12/27 16:21:17;;;;;;;6.07;1.50;;;;;;;;;;5068267;28;20214;-77
2022/12/27 16:23:46;;;;;;;8.15;2.25;;;;;;;;;;5064984;28;20082;-78
2022/12/27 16:26:22;;;;;;;6.13;1.88;;;;;;;;;;5067180;28;20044;-78
2022/12/27 16:29:13;;;;;;;6.68;1.67;;;;;;;;;;5069439;28;20040;-78
2022/12/27 16:31:42;;;;;;;9.27;2.40;;;;;;;;;;5061359;28;20051;-76
2022/12/27 16:34:27;;;;;;;4.53;1.85;;;;;;;;;;5048235;28;20896;-77
2022/12/27 16:36:53;;;;;;;5.70;1.45;;;;;;;;;;5062559;28;20052;-77
2022/12/27 16:39:23;;;;;;;8.93;1.77;;;;;;;;;;5066173;28;20528;-78